Time;durP1;ratioP1;P1;durP2;ratioP2;P2;SDS_P1;SDS_P2;PMS_P1;PMS_P2;Temp;Humidity;BMP_temperature;BMP_pressure;BME280_temperature;BME280_humidity;BME280_pressure;Samples;Min_cycle;Max_cycle;Signal;HPM_P1;HPM_P2
2023/11/22 00:00:32;;;;;;;8.70;7.90;;;9.90;99.90;;;;;;5051579;28;20190;-60
2023/11/22 00:02:58;;;;;;;9.80;8.90;;;9.90;99.90;;;;;;5052920;28;20416;-60
2023/11/22 00:05:24;;;;;;;14.50;8.83;;;9.90;99.90;;;;;;5051292;28;20178;-60
2023/11/22 00:07:49;;;;;;;8.80;7.93;;;9.80;99.90;;;;;;5051569;28;20359;-60
2023/11/22 00:10:15;;;;;;;8.70;7.90;;;9.80;99.90;;;;;;5051807;28;20206;-61
2023/11/22 00:12:41;;;;;;;8.40;7.70;;;9.80;99.90;;;;;;5052091;28;20209;-60
2023/11/22 00:15:08;;;;;;;9.33;8.33;;;9.80;99.90;;;;;;5059246;28;20223;-62
2023/11/22 00:17:34;;;;;;;8.00;7.20;;;9.80;99.90;;;;;;5083743;28;20169;-60
2023/11/22 00:20:05;;;;;;;8.47;7.70;;;9.80;99.90;;;;;;5074676;28;20412;-60
2023/11/22 00:22:32;;;;;;;9.13;8.10;;;9.80;99.90;;;;;;5075699;28;20503;-60
2023/11/22 00:24:59;;;;;;;9.93;8.27;;;9.90;99.90;;;;;;5084115;28;20427;-61
2023/11/22 00:27:25;;;;;;;8.93;8.03;;;9.90;99.90;;;;;;5090446;28;20457;-58
2023/11/22 00:29:52;;;;;;;9.27;7.53;;;9.90;99.90;;;;;;5074687;28;20435;-61
2023/11/22 00:32:18;;;;;;;8.47;7.77;;;9.90;99.90;;;;;;5090696;28;20412;-61
2023/11/22 00:34:44;;;;;;;8.77;7.97;;;10.00;99.90;;;;;;5066931;28;20926;-60
2023/11/22 00:37:10;;;;;;;8.90;8.10;;;9.80;99.90;;;;;;5092585;28;20909;-60
2023/11/22 00:39:37;;;;;;;8.70;7.80;;;9.70;99.90;;;;;;5089260;28;20419;-60
2023/11/22 00:42:03;;;;;;;8.73;7.93;;;9.70;99.90;;;;;;5077610;28;20420;-58
2023/11/22 00:44:30;;;;;;;8.47;7.67;;;9.60;99.90;;;;;;5053767;28;20908;-60
2023/11/22 00:46:57;;;;;;;9.30;8.50;;;9.70;99.90;;;;;;5089636;28;20907;-60
2023/11/22 00:49:23;;;;;;;9.87;8.87;;;9.70;99.90;;;;;;5090477;28;20459;-61
2023/11/22 00:51:50;;;;;;;10.00;9.00;;;9.80;99.90;;;;;;5091832;28;20409;-60
2023/11/22 00:54:16;;;;;;;9.50;8.60;;;9.90;99.90;;;;;;5090732;28;20449;-60
2023/11/22 00:56:42;;;;;;;8.80;7.90;;;9.80;99.90;;;;;;5085285;28;20428;-60
2023/11/22 00:59:08;;;;;;;11.63;8.50;;;9.70;99.90;;;;;;5072377;28;20499;-61
2023/11/22 01:01:34;;;;;;;9.23;8.07;;;9.70;99.90;;;;;;5078209;28;20431;-60
2023/11/22 01:04:00;;;;;;;10.83;7.97;;;9.70;99.90;;;;;;5080415;28;20423;-60
2023/11/22 01:06:26;;;;;;;11.30;9.53;;;9.70;99.90;;;;;;5092341;28;20414;-60
2023/11/22 01:08:51;;;;;;;9.90;8.90;;;9.70;99.90;;;;;;5090511;28;20260;-60
2023/11/22 01:11:17;;;;;;;10.43;9.20;;;9.70;99.90;;;;;;5082883;28;20187;-61
2023/11/22 01:13:43;;;;;;;11.20;9.10;;;9.70;99.90;;;;;;5051450;28;20584;-60
2023/11/22 01:16:09;;;;;;;12.40;9.93;;;9.60;99.90;;;;;;5079225;28;20270;-60
2023/11/22 01:18:36;;;;;;;11.07;8.80;;;9.70;99.90;;;;;;5073521;28;20240;-60
2023/11/22 01:21:03;;;;;;;13.20;10.07;;;9.70;99.90;;;;;;5089002;28;20431;-61
2023/11/22 01:23:30;;;;;;;12.53;10.00;;;9.70;99.90;;;;;;5091589;28;20885;-59
2023/11/22 01:25:55;;;;;;;12.40;10.27;;;9.80;99.90;;;;;;5071816;28;20438;-60
2023/11/22 01:28:21;;;;;;;12.13;10.30;;;9.80;99.90;;;;;;5090681;28;20448;-59
2023/11/22 01:30:48;;;;;;;12.43;10.37;;;9.70;99.90;;;;;;5088205;28;20186;-60
2023/11/22 01:33:15;;;;;;;11.73;10.53;;;9.80;99.90;;;;;;5090063;28;20420;-60
2023/11/22 01:35:41;;;;;;;12.53;11.23;;;9.70;99.90;;;;;;5089818;28;20491;-60
2023/11/22 01:38:07;;;;;;;11.87;10.00;;;9.70;99.90;;;;;;5092257;28;20812;-60
2023/11/22 01:40:34;;;;;;;12.00;10.37;;;9.70;99.90;;;;;;5089423;28;20507;-60
2023/11/22 01:43:02;;;;;;;13.63;10.17;;;9.70;99.90;;;;;;5090148;28;20439;-60
2023/11/22 01:45:28;;;;;;;12.30;9.40;;;9.70;99.90;;;;;;5091848;28;20416;-61
2023/11/22 01:47:55;;;;;;;11.90;10.40;;;9.80;99.90;;;;;;5089436;28;20499;-61
2023/11/22 01:50:21;;;;;;;12.00;10.80;;;9.80;99.90;;;;;;5072253;28;20420;-60
2023/11/22 01:52:47;;;;;;;14.07;10.63;;;10.00;99.90;;;;;;5095026;28;20425;-60
2023/11/22 01:55:15;;;;;;;12.67;10.20;;;9.80;99.90;;;;;;5093576;28;20435;-61
2023/11/22 01:57:41;;;;;;;11.67;10.20;;;9.80;99.90;;;;;;5089797;28;20450;-60
2023/11/22 02:00:08;;;;;;;12.00;10.30;;;9.70;99.90;;;;;;5075514;28;20908;-60
2023/11/22 02:02:34;;;;;;;12.23;10.80;;;9.70;99.90;;;;;;5066123;28;20454;-60
2023/11/22 02:05:00;;;;;;;12.17;11.07;;;9.80;99.90;;;;;;5095317;28;20398;-60
2023/11/22 02:07:29;;;;;;;10.03;9.10;;;9.80;99.90;;;;;;5046828;28;20836;-60
2023/11/22 02:09:55;;;;;;;11.53;10.10;;;9.80;99.90;;;;;;5046345;28;20908;-60
2023/11/22 02:12:21;;;;;;;10.10;9.10;;;9.70;99.90;;;;;;5056056;28;20425;-60
2023/11/22 02:14:48;;;;;;;11.20;10.10;;;9.60;99.90;;;;;;5088628;28;20514;-60
2023/11/22 02:17:13;;;;;;;11.90;10.73;;;9.60;99.90;;;;;;5089656;28;20328;-61
2023/11/22 02:19:39;;;;;;;10.90;9.80;;;9.50;99.90;;;;;;5076405;28;20450;-60
2023/11/22 02:22:05;;;;;;;14.33;9.57;;;9.40;99.90;;;;;;5093319;28;20179;-61
2023/11/22 02:24:34;;;;;;;11.03;9.83;;;9.50;99.90;;;;;;5090922;28;20921;-58
2023/11/22 02:27:00;;;;;;;12.47;10.13;;;9.50;99.90;;;;;;5093579;28;20158;-60
2023/11/22 02:29:25;;;;;;;12.17;10.03;;;9.40;99.90;;;;;;5072207;28;20450;-60
2023/11/22 02:31:51;;;;;;;9.70;8.70;;;9.50;99.90;;;;;;5073958;28;20683;-61
2023/11/22 02:34:17;;;;;;;9.60;8.73;;;9.50;99.90;;;;;;5092894;28;20204;-60
2023/11/22 02:36:43;;;;;;;15.70;8.87;;;9.60;99.90;;;;;;5094205;28;20170;-60
2023/11/22 02:39:09;;;;;;;8.67;7.97;;;9.70;99.90;;;;;;5075496;28;20178;-61
2023/11/22 02:41:35;;;;;;;9.73;8.73;;;9.70;99.90;;;;;;5079827;28;20467;-60
2023/11/22 02:44:01;;;;;;;7.63;6.90;;;9.60;99.90;;;;;;5093159;28;20467;-60
2023/11/22 02:46:27;;;;;;;8.80;7.90;;;9.60;99.90;;;;;;5092757;28;20190;-61
2023/11/22 02:48:54;;;;;;;9.57;8.57;;;9.60;99.90;;;;;;5078453;28;20477;-60
2023/11/22 02:51:21;;;;;;;8.57;7.67;;;9.60;99.90;;;;;;5053948;28;20432;-61
2023/11/22 02:53:48;;;;;;;9.33;8.53;;;9.60;99.90;;;;;;5035703;28;20404;-60
2023/11/22 02:56:14;;;;;;;9.13;8.17;;;9.60;99.90;;;;;;5081690;28;20426;-61
2023/11/22 02:58:40;;;;;;;8.23;7.43;;;9.70;99.90;;;;;;5092834;28;20402;-61
2023/11/22 03:01:07;;;;;;;8.57;7.77;;;9.60;99.90;;;;;;5092305;28;20427;-61
2023/11/22 03:03:34;;;;;;;8.30;7.10;;;9.40;99.90;;;;;;5090244;28;20422;-60
2023/11/22 03:06:00;;;;;;;9.07;7.97;;;9.40;99.90;;;;;;5094011;28;20403;-61
2023/11/22 03:08:26;;;;;;;7.47;6.83;;;9.40;99.90;;;;;;5082306;28;20461;-62
2023/11/22 03:10:53;;;;;;;8.53;7.53;;;9.30;99.90;;;;;;5091783;28;20427;-61
2023/11/22 03:13:18;;;;;;;7.60;6.57;;;9.30;99.90;;;;;;5094074;28;20497;-61
2023/11/22 03:15:44;;;;;;;7.30;6.57;;;9.20;99.90;;;;;;5091221;28;20539;-61
2023/11/22 03:18:11;;;;;;;7.10;6.50;;;9.10;99.90;;;;;;5069166;28;20181;-61
2023/11/22 03:20:37;;;;;;;7.10;6.50;;;9.10;99.90;;;;;;5053133;28;20514;-60
2023/11/22 03:23:04;;;;;;;6.97;6.37;;;9.10;99.90;;;;;;5072363;28;20832;-61
2023/11/22 03:25:30;;;;;;;7.50;6.70;;;9.00;99.90;;;;;;5091826;28;20531;-59
2023/11/22 03:27:56;;;;;;;7.50;6.80;;;9.00;99.90;;;;;;5071869;28;20489;-61
2023/11/22 03:30:22;;;;;;;6.63;6.00;;;8.90;99.90;;;;;;5091838;28;20406;-61
2023/11/22 03:32:49;;;;;;;6.60;6.00;;;8.90;99.90;;;;;;5074911;28;20413;-61
2023/11/22 03:35:16;;;;;;;7.30;6.07;;;8.80;99.90;;;;;;5091697;28;20196;-61
2023/11/22 03:37:42;;;;;;;7.40;6.70;;;8.80;99.90;;;;;;5091042;28;20423;-61
2023/11/22 03:40:09;;;;;;;7.27;6.67;;;8.80;99.90;;;;;;5093779;28;20528;-61
2023/11/22 03:42:38;;;;;;;6.60;6.00;;;8.80;99.90;;;;;;5071145;28;20453;-61
2023/11/22 03:45:05;;;;;;;7.30;6.63;;;8.80;99.90;;;;;;5082307;28;20479;-61
2023/11/22 03:47:32;;;;;;;7.07;6.50;;;8.80;99.90;;;;;;5091550;28;20898;-61
2023/11/22 03:49:59;;;;;;;6.63;6.13;;;8.70;99.90;;;;;;5069863;28;20438;-61
2023/11/22 03:52:26;;;;;;;8.80;7.30;;;8.70;99.90;;;;;;5078484;28;20423;-61
2023/11/22 03:54:52;;;;;;;7.13;6.10;;;8.80;99.90;;;;;;5072447;28;20415;-61
2023/11/22 03:57:18;;;;;;;7.20;6.40;;;8.80;99.90;;;;;;5063037;28;20443;-62
2023/11/22 03:59:44;;;;;;;7.63;6.93;;;8.80;99.90;;;;;;5056751;28;20427;-61
2023/11/22 04:02:10;;;;;;;7.13;6.20;;;8.70;99.90;;;;;;5052990;28;20170;-62
2023/11/22 04:04:39;;;;;;;6.50;6.00;;;8.70;99.90;;;;;;5052518;28;20534;-62
2023/11/22 04:07:06;;;;;;;7.17;6.47;;;8.60;99.90;;;;;;5068566;28;20415;-62
2023/11/22 04:09:32;;;;;;;7.43;6.73;;;8.70;99.90;;;;;;5071796;28;20797;-60
2023/11/22 04:11:58;;;;;;;7.83;6.80;;;8.60;99.90;;;;;;5072203;28;20430;-61
2023/11/22 04:14:24;;;;;;;8.70;6.27;;;8.60;99.90;;;;;;5052815;28;20803;-61
2023/11/22 04:16:50;;;;;;;7.70;6.90;;;8.50;99.90;;;;;;5043976;28;20471;-61
2023/11/22 04:19:16;;;;;;;7.73;6.10;;;8.60;99.90;;;;;;5051668;28;20432;-61
2023/11/22 04:21:42;;;;;;;6.87;6.27;;;8.40;99.90;;;;;;5051840;28;20470;-61
2023/11/22 04:24:08;;;;;;;6.47;5.97;;;8.30;99.90;;;;;;5051253;28;20193;-61
2023/11/22 04:26:33;;;;;;;6.60;6.10;;;8.20;99.90;;;;;;5051444;28;20170;-62
2023/11/22 04:28:59;;;;;;;7.13;6.53;;;8.20;99.90;;;;;;5051236;28;20494;-61
2023/11/22 04:31:25;;;;;;;7.00;6.50;;;8.20;99.90;;;;;;5048794;28;20174;-61
2023/11/22 04:33:50;;;;;;;7.30;6.70;;;8.10;99.90;;;;;;5049114;28;20629;-61
2023/11/22 04:36:16;;;;;;;7.20;6.50;;;8.10;99.90;;;;;;5051044;28;20216;-61
2023/11/22 04:38:42;;;;;;;7.53;6.83;;;8.10;99.90;;;;;;5050508;28;20220;-60
2023/11/22 04:41:08;;;;;;;7.60;6.90;;;8.10;99.90;;;;;;5050980;28;20176;-61
2023/11/22 04:43:34;;;;;;;8.03;7.23;;;8.10;99.90;;;;;;5051511;28;20428;-61
2023/11/22 04:45:59;;;;;;;7.30;6.63;;;8.10;99.90;;;;;;5050188;28;20703;-61
2023/11/22 04:48:25;;;;;;;6.90;6.20;;;8.00;99.90;;;;;;5051099;28;20209;-60
2023/11/22 04:50:51;;;;;;;7.67;6.83;;;8.00;99.90;;;;;;5051669;28;20682;-61
2023/11/22 04:53:18;;;;;;;7.20;6.70;;;7.90;99.90;;;;;;5051023;28;20177;-61
2023/11/22 04:55:44;;;;;;;7.13;6.53;;;7.90;99.90;;;;;;5050584;28;20518;-61
2023/11/22 04:58:10;;;;;;;7.07;6.40;;;7.90;99.90;;;;;;5050809;28;20444;-61
2023/11/22 05:00:36;;;;;;;6.70;6.20;;;7.90;99.90;;;;;;5051176;28;20173;-61
2023/11/22 05:03:02;;;;;;;7.07;6.37;;;7.90;99.90;;;;;;5050471;28;20774;-62
2023/11/22 05:05:27;;;;;;;7.87;5.87;;;7.80;99.90;;;;;;5051126;28;20236;-63
2023/11/22 05:07:53;;;;;;;7.03;5.97;;;7.70;99.90;;;;;;5051469;28;20184;-61
2023/11/22 05:10:19;;;;;;;7.10;6.60;;;7.70;99.90;;;;;;5050875;28;20170;-62
2023/11/22 05:12:44;;;;;;;5.93;5.50;;;7.70;99.90;;;;;;5049845;28;20691;-62
2023/11/22 05:15:11;;;;;;;8.53;6.53;;;7.60;99.90;;;;;;5060800;28;20450;-61
2023/11/22 05:17:37;;;;;;;8.07;7.47;;;7.50;99.90;;;;;;5090403;28;20232;-61
2023/11/22 05:20:04;;;;;;;8.20;7.50;;;7.40;99.90;;;;;;5054966;28;20431;-61
2023/11/22 05:22:30;;;;;;;7.33;6.63;;;7.40;99.90;;;;;;5092201;28;20187;-62
2023/11/22 05:24:56;;;;;;;7.97;6.93;;;7.40;99.90;;;;;;5089739;28;20433;-62
2023/11/22 05:27:22;;;;;;;7.23;6.53;;;7.40;99.90;;;;;;5094186;28;20204;-62
2023/11/22 05:29:47;;;;;;;9.77;8.87;;;7.40;99.90;;;;;;5095667;28;20441;-61
2023/11/22 05:32:13;;;;;;;9.33;8.00;;;7.40;99.90;;;;;;5092411;28;20514;-62
2023/11/22 05:34:40;;;;;;;8.43;7.70;;;7.40;99.90;;;;;;5092153;28;20180;-61
2023/11/22 05:37:06;;;;;;;8.57;7.10;;;7.40;99.90;;;;;;5055060;28;20218;-62
2023/11/22 05:39:32;;;;;;;8.30;7.17;;;7.40;99.90;;;;;;5058206;28;20451;-62
2023/11/22 05:41:57;;;;;;;6.73;6.10;;;7.40;99.90;;;;;;5060370;28;20677;-62
2023/11/22 05:44:25;;;;;;;6.70;6.10;;;7.40;99.90;;;;;;5095844;28;20235;-62
2023/11/22 05:46:51;;;;;;;7.27;6.57;;;7.40;99.90;;;;;;5084183;28;20242;-63
2023/11/22 05:49:17;;;;;;;9.77;8.87;;;7.40;99.90;;;;;;5080311;28;20447;-61
2023/11/22 05:51:43;;;;;;;7.80;7.00;;;7.40;99.90;;;;;;5092855;28;20441;-61
2023/11/22 05:54:11;;;;;;;11.13;8.43;;;6.80;99.90;;;;;;5093860;28;20179;-61
2023/11/22 05:56:37;;;;;;;11.13;7.87;;;7.20;99.90;;;;;;5095537;28;20950;-62
2023/11/22 05:59:03;;;;;;;7.53;6.77;;;7.10;99.90;;;;;;5092068;28;20470;-61
2023/11/22 06:01:30;;;;;;;8.30;7.53;;;7.10;99.90;;;;;;5093074;28;20453;-63
2023/11/22 06:03:56;;;;;;;11.53;9.83;;;7.10;99.90;;;;;;5092941;28;20412;-61
2023/11/22 06:06:22;;;;;;;8.30;7.60;;;7.10;99.90;;;;;;5070958;28;20922;-61
2023/11/22 06:08:48;;;;;;;9.53;8.53;;;7.10;99.90;;;;;;5079569;28;20195;-61
2023/11/22 06:11:17;;;;;;;8.00;7.30;;;7.20;99.90;;;;;;5056145;28;20493;-60
2023/11/22 06:13:43;;;;;;;8.90;7.33;;;7.30;99.90;;;;;;5070710;28;20475;-62
2023/11/22 06:16:09;;;;;;;8.37;7.53;;;7.00;99.90;;;;;;5054287;28;20489;-60
2023/11/22 06:18:40;;;;;;;7.90;6.93;;;6.90;99.90;;;;;;5052269;28;20257;-60
2023/11/22 06:21:07;;;;;;;11.33;8.93;;;6.80;99.90;;;;;;5036200;28;20665;-61
2023/11/22 06:23:32;;;;;;;15.53;9.63;;;6.70;99.90;;;;;;5053865;28;20459;-61
2023/11/22 06:25:58;;;;;;;12.10;9.73;;;6.70;99.90;;;;;;5053279;28;20533;-62
2023/11/22 06:28:24;;;;;;;8.30;7.50;;;6.80;99.90;;;;;;5053437;28;20440;-62
2023/11/22 06:30:50;;;;;;;8.27;7.47;;;6.70;99.90;;;;;;5054033;28;20201;-61
2023/11/22 06:33:16;;;;;;;7.80;7.00;;;6.70;99.90;;;;;;5054580;28;20172;-61
2023/11/22 06:35:42;;;;;;;8.60;7.57;;;6.80;99.90;;;;;;5039089;28;20442;-61
2023/11/22 06:38:08;;;;;;;9.47;7.40;;;6.90;99.90;;;;;;5052969;28;20889;-61
2023/11/22 06:40:34;;;;;;;9.20;7.10;;;6.80;99.90;;;;;;5053456;28;20432;-61
2023/11/22 06:43:00;;;;;;;11.03;8.03;;;6.70;99.90;;;;;;5052933;28;20432;-63
2023/11/22 06:45:26;;;;;;;7.80;7.10;;;6.80;99.90;;;;;;5053252;28;20474;-61
2023/11/22 06:47:52;;;;;;;8.00;6.50;;;6.80;99.90;;;;;;5053207;28;20438;-61
2023/11/22 06:50:18;;;;;;;9.00;7.70;;;6.40;99.90;;;;;;5052176;28;20663;-62
2023/11/22 06:52:45;;;;;;;9.13;8.23;;;6.80;99.90;;;;;;5053101;28;20471;-61
2023/11/22 06:55:11;;;;;;;10.30;7.40;;;6.80;99.90;;;;;;5052307;28;20185;-61
2023/11/22 06:57:37;;;;;;;9.43;7.87;;;6.80;99.90;;;;;;5054148;28;20760;-61
2023/11/22 07:00:09;;;;;;;7.90;7.10;;;6.80;99.90;;;;;;5050418;28;20402;-61
2023/11/22 07:02:35;;;;;;;8.07;6.97;;;6.80;99.90;;;;;;5049835;28;20405;-62
2023/11/22 07:05:11;;;;;;;10.23;6.80;;;6.80;99.90;;;;;;5051068;28;20434;-60
2023/11/22 07:07:37;;;;;;;7.57;6.87;;;6.80;99.90;;;;;;5053804;28;20418;-62
2023/11/22 07:10:05;;;;;;;8.07;7.00;;;6.80;99.90;;;;;;5050448;28;20459;-59
2023/11/22 07:12:31;;;;;;;7.13;6.40;;;6.70;99.90;;;;;;5051497;28;20774;-59
2023/11/22 07:14:57;;;;;;;11.20;6.83;;;6.70;99.90;;;;;;5053214;28;20862;-59
2023/11/22 07:17:22;;;;;;;7.40;6.67;;;6.70;99.90;;;;;;5052823;28;20446;-59
2023/11/22 07:19:49;;;;;;;9.13;7.00;;;6.60;99.90;;;;;;5052716;28;20281;-59
2023/11/22 07:22:15;;;;;;;8.10;6.93;;;6.70;99.90;;;;;;5053718;28;20173;-59
2023/11/22 07:24:45;;;;;;;7.90;6.43;;;6.60;99.90;;;;;;5050608;28;20436;-58
2023/11/22 07:27:12;;;;;;;7.97;7.17;;;6.50;99.90;;;;;;5050429;28;20425;-59
2023/11/22 07:29:41;;;;;;;8.63;7.67;;;6.50;99.90;;;;;;5052581;28;20468;-59
2023/11/22 07:32:08;;;;;;;7.30;6.60;;;6.60;99.90;;;;;;5052803;28;20405;-59
2023/11/22 07:34:35;;;;;;;7.50;6.60;;;6.60;99.90;;;;;;5034069;28;20431;-60
2023/11/22 07:37:00;;;;;;;11.50;6.87;;;6.50;99.90;;;;;;5052152;28;20429;-59
2023/11/22 07:39:29;;;;;;;8.13;7.10;;;6.60;99.90;;;;;;5053391;28;20522;-59
2023/11/22 07:41:56;;;;;;;9.53;8.73;;;6.50;99.90;;;;;;5034606;28;20273;-62
2023/11/22 07:44:25;;;;;;;10.30;9.40;;;7.10;99.90;;;;;;5052144;28;20435;-60
2023/11/22 07:46:59;;;;;;;9.80;8.90;;;8.00;99.90;;;;;;5052763;28;20469;-60
2023/11/22 07:49:25;;;;;;;8.90;8.20;;;8.70;99.90;;;;;;5051903;28;20418;-61
2023/11/22 07:51:51;;;;;;;8.80;8.00;;;9.30;99.90;;;;;;5051759;28;20443;-59
2023/11/22 07:54:22;;;;;;;8.83;8.03;;;9.30;99.90;;;;;;5051758;28;20973;-60
2023/11/22 07:56:48;;;;;;;9.90;8.63;;;9.10;99.90;;;;;;5051597;28;20408;-61
2023/11/22 07:59:15;;;;;;;10.00;8.97;;;8.90;99.90;;;;;;5042651;28;20427;-60
2023/11/22 08:01:45;;;;;;;9.73;8.73;;;8.80;99.90;;;;;;5051703;28;20436;-59
2023/11/22 08:04:10;;;;;;;10.50;9.30;;;8.50;99.90;;;;;;5050431;28;20439;-60
2023/11/22 08:06:37;;;;;;;9.50;8.47;;;8.40;99.90;;;;;;5052434;28;20416;-63
2023/11/22 08:09:04;;;;;;;11.17;8.83;;;8.30;99.90;;;;;;5051218;28;20559;-63
2023/11/22 08:11:31;;;;;;;8.30;7.50;;;8.20;99.90;;;;;;5051644;28;20420;-65
2023/11/22 08:13:58;;;;;;;8.90;8.00;;;8.10;99.90;;;;;;5051154;28;20466;-62
2023/11/22 08:16:27;;;;;;;11.50;10.40;;;8.00;99.90;;;;;;5074953;28;20458;-64
2023/11/22 08:18:53;;;;;;;9.50;8.60;;;7.90;99.90;;;;;;5075710;28;20854;-64
2023/11/22 08:21:19;;;;;;;9.00;8.20;;;7.90;99.90;;;;;;5087560;28;20474;-65
2023/11/22 08:23:49;;;;;;;10.77;9.87;;;7.80;99.90;;;;;;5058538;28;20799;-65
2023/11/22 08:26:15;;;;;;;9.43;8.40;;;7.80;99.90;;;;;;5071460;28;20902;-65
2023/11/22 08:28:41;;;;;;;14.50;8.23;;;7.80;99.90;;;;;;5079729;28;20453;-65
2023/11/22 08:31:10;;;;;;;10.37;9.20;;;7.80;99.90;;;;;;5087780;28;20426;-65
2023/11/22 08:33:39;;;;;;;10.63;9.53;;;7.80;99.90;;;;;;5091479;28;20942;-65
2023/11/22 08:36:08;;;;;;;9.90;8.90;;;7.80;99.90;;;;;;5088871;28;20433;-65
2023/11/22 08:38:35;;;;;;;8.83;7.93;;;8.00;99.90;;;;;;5084309;28;20426;-65
2023/11/22 08:41:02;;;;;;;9.33;8.43;;;7.80;99.90;;;;;;5056156;28;20426;-65
2023/11/22 08:43:28;;;;;;;14.83;10.63;;;8.10;99.90;;;;;;5075336;28;20462;-65
2023/11/22 08:45:54;;;;;;;18.70;16.20;;;9.00;99.90;;;;;;5076383;28;20462;-60
2023/11/22 08:48:20;;;;;;;16.60;14.90;;;10.20;99.90;;;;;;5060803;28;20296;-64
2023/11/22 08:50:47;;;;;;;11.00;9.80;;;11.30;99.20;;;;;;5072810;28;20441;-63
2023/11/22 08:53:14;;;;;;;9.37;8.47;;;12.40;97.10;;;;;;5080843;28;20434;-63
2023/11/22 08:55:39;;;;;;;8.50;7.80;;;13.40;93.40;;;;;;5089075;28;20407;-62
2023/11/22 08:58:05;;;;;;;9.43;8.53;;;14.40;90.30;;;;;;5073927;28;20881;-63
2023/11/22 09:00:32;;;;;;;9.63;8.73;;;15.20;85.80;;;;;;5091575;28;20577;-63
2023/11/22 09:02:58;;;;;;;9.77;8.80;;;15.70;82.20;;;;;;5094018;28;20199;-62
2023/11/22 09:05:24;;;;;;;10.43;9.50;;;16.00;78.10;;;;;;5079387;28;20427;-66
2023/11/22 09:07:51;;;;;;;10.10;9.10;;;16.20;74.70;;;;;;5080327;28;20419;-63
2023/11/22 09:10:18;;;;;;;10.10;9.20;;;16.50;73.30;;;;;;5069328;28;20898;-63
2023/11/22 09:12:44;;;;;;;11.13;8.87;;;16.80;69.70;;;;;;5089981;28;20423;-62
2023/11/22 09:15:13;;;;;;;9.50;8.70;;;16.90;68.20;;;;;;5080787;28;20852;-64
2023/11/22 09:17:43;;;;;;;8.53;7.77;;;16.80;67.70;;;;;;5036315;28;20541;-63
2023/11/22 09:20:18;;;;;;;6.73;6.20;;;16.80;66.00;;;;;;5035850;28;20394;-62
2023/11/22 09:22:47;;;;;;;6.30;5.80;;;16.80;62.30;;;;;;5056102;28;20891;-64
2023/11/22 09:25:24;;;;;;;7.10;6.50;;;16.30;57.90;;;;;;5055191;28;20416;-63
2023/11/22 09:28:00;;;;;;;9.70;9.00;;;16.10;57.50;;;;;;5051603;28;20460;-63
2023/11/22 09:30:43;;;;;;;7.47;6.77;;;15.80;58.10;;;;;;5044195;28;20420;-63
2023/11/22 09:33:14;;;;;;;7.87;7.27;;;15.60;59.60;;;;;;5055217;28;20903;-63
2023/11/22 09:35:41;;;;;;;6.63;6.20;;;15.30;59.60;;;;;;5018341;28;20464;-63
2023/11/22 09:38:11;;;;;;;7.10;6.60;;;14.80;60.40;;;;;;5043460;28;20426;-63
2023/11/22 09:40:45;;;;;;;7.37;6.77;;;14.30;60.90;;;;;;5056007;28;20484;-63
2023/11/22 09:43:11;;;;;;;7.10;6.50;;;13.70;62.00;;;;;;5055044;28;20415;-63
2023/11/22 09:45:38;;;;;;;6.93;6.33;;;13.20;65.40;;;;;;5049649;28;20437;-62
2023/11/22 09:48:14;;;;;;;6.30;5.70;;;12.90;67.80;;;;;;5054802;28;20402;-63
2023/11/22 09:50:46;;;;;;;8.13;6.30;;;12.50;68.50;;;;;;5054077;28;20436;-63
2023/11/22 09:53:19;;;;;;;5.80;5.20;;;12.30;68.80;;;;;;5037053;28;20892;-63
2023/11/22 09:55:45;;;;;;;6.43;5.80;;;12.00;70.00;;;;;;5055651;28;20395;-63
2023/11/22 09:58:17;;;;;;;7.83;7.13;;;11.80;70.90;;;;;;5054702;28;20495;-63
2023/11/22 10:00:43;;;;;;;6.03;5.53;;;11.50;70.70;;;;;;5054255;28;20397;-61
2023/11/22 10:03:14;;;;;;;6.13;5.63;;;11.20;72.10;;;;;;5053230;28;20564;-62
2023/11/22 10:05:43;;;;;;;5.67;5.27;;;11.00;74.20;;;;;;5055202;28;20497;-63
2023/11/22 10:08:09;;;;;;;6.90;5.83;;;10.80;74.90;;;;;;5054514;28;20491;-63
2023/11/22 10:10:40;;;;;;;6.63;6.03;;;10.60;76.40;;;;;;5020694;28;20760;-64
2023/11/22 10:13:05;;;;;;;6.00;5.50;;;10.50;77.20;;;;;;5054393;28;20384;-64
2023/11/22 10:15:31;;;;;;;5.33;4.93;;;10.50;80.30;;;;;;5054890;28;20965;-64
2023/11/22 10:18:00;;;;;;;6.23;5.37;;;10.40;81.20;;;;;;5053874;28;20531;-64
2023/11/22 10:20:40;;;;;;;7.10;5.40;;;10.30;80.40;;;;;;5054875;28;20175;-63
2023/11/22 10:23:16;;;;;;;5.20;4.80;;;10.30;82.40;;;;;;5054478;28;20766;-63
2023/11/22 10:25:44;;;;;;;5.87;5.47;;;10.30;82.80;;;;;;5054212;28;20519;-64
2023/11/22 10:28:11;;;;;;;5.93;5.43;;;10.30;82.00;;;;;;5052373;28;20501;-63
2023/11/22 10:30:37;;;;;;;6.33;5.83;;;10.20;81.40;;;;;;5054748;28;20413;-64
2023/11/22 10:33:03;;;;;;;6.03;5.63;;;10.10;85.00;;;;;;5054078;28;20468;-63
2023/11/22 10:35:29;;;;;;;6.43;5.70;;;10.10;83.10;;;;;;5054818;28;20639;-64
2023/11/22 10:37:55;;;;;;;6.20;5.70;;;10.00;82.90;;;;;;5054887;28;20799;-64
2023/11/22 10:40:21;;;;;;;6.00;5.60;;;10.00;81.90;;;;;;5053971;28;20726;-64
2023/11/22 10:42:52;;;;;;;6.03;5.63;;;10.00;82.50;;;;;;5052916;28;20186;-64
2023/11/22 10:45:17;;;;;;;6.47;5.97;;;10.00;83.90;;;;;;5052750;28;20479;-63
2023/11/22 10:47:43;;;;;;;6.07;5.57;;;9.90;84.90;;;;;;5053231;28;20419;-64
2023/11/22 10:50:12;;;;;;;5.30;4.90;;;9.90;85.40;;;;;;5052526;28;20598;-63
2023/11/22 10:52:43;;;;;;;6.87;6.27;;;9.90;81.50;;;;;;5054540;28;20414;-63
2023/11/22 10:55:11;;;;;;;5.50;4.90;;;9.90;81.30;;;;;;5053748;28;20406;-63
2023/11/22 10:57:49;;;;;;;4.77;4.37;;;10.00;79.50;;;;;;5052312;28;20463;-63
2023/11/22 11:00:16;;;;;;;5.50;5.10;;;9.90;76.80;;;;;;5053590;28;20457;-63
2023/11/22 11:02:49;;;;;;;4.60;4.30;;;9.80;78.40;;;;;;5054141;28;20403;-63
2023/11/22 11:05:19;;;;;;;5.10;4.60;;;9.90;78.60;;;;;;5053734;28;20744;-63
2023/11/22 11:07:54;;;;;;;4.67;4.37;;;9.90;75.20;;;;;;5052876;28;20389;-64
2023/11/22 11:10:23;;;;;;;5.67;5.23;;;9.80;71.30;;;;;;5053448;28;20474;-63
2023/11/22 11:12:49;;;;;;;4.90;4.60;;;9.70;71.60;;;;;;5053955;28;20939;-64
2023/11/22 11:15:17;;;;;;;5.00;4.70;;;9.70;72.40;;;;;;5063273;28;20460;-64
2023/11/22 11:17:47;;;;;;;5.37;4.87;;;9.80;73.00;;;;;;5091846;28;20436;-65
2023/11/22 11:20:17;;;;;;;4.17;3.67;;;9.70;74.10;;;;;;5093381;28;20396;-64
2023/11/22 11:22:45;;;;;;;4.40;4.10;;;9.80;73.10;;;;;;5093493;28;20448;-62
2023/11/22 11:25:20;;;;;;;8.17;7.37;;;10.00;80.70;;;;;;5093231;28;20409;-61
2023/11/22 11:27:57;;;;;;;9.70;8.70;;;11.30;99.90;;;;;;5093837;28;20893;-61
2023/11/22 11:30:43;;;;;;;4.80;4.50;;;13.20;99.90;;;;;;5093331;28;20399;-61
2023/11/22 11:33:09;;;;;;;5.13;4.73;;;13.40;79.50;;;;;;5093145;28;20402;-60
2023/11/22 11:35:42;;;;;;;9.30;7.30;;;13.30;75.10;;;;;;5085637;28;20410;-61
2023/11/22 11:38:09;;;;;;;7.33;6.30;;;13.70;99.90;;;;;;5073085;28;20465;-61
2023/11/22 11:40:36;;;;;;;7.00;6.50;;;15.00;96.10;;;;;;5055532;28;20405;-61
2023/11/22 11:43:04;;;;;;;6.10;5.80;;;15.70;93.70;;;;;;5073453;28;20403;-61
2023/11/22 11:45:31;;;;;;;6.87;6.30;;;16.10;77.40;;;;;;5074022;28;20790;-61
2023/11/22 11:47:57;;;;;;;6.47;6.07;;;16.00;78.00;;;;;;5093314;28;20753;-61
2023/11/22 11:50:22;;;;;;;5.63;5.23;;;16.10;70.30;;;;;;5092667;28;20420;-61
2023/11/22 11:52:48;;;;;;;5.20;4.70;;;16.10;64.00;;;;;;5093254;28;20201;-61
2023/11/22 11:55:15;;;;;;;5.53;4.60;;;16.10;58.40;;;;;;5089256;28;20683;-61
2023/11/22 11:57:41;;;;;;;6.27;5.87;;;16.00;59.60;;;;;;5093308;28;20627;-60
2023/11/22 12:00:09;;;;;;;5.90;5.40;;;16.10;75.00;;;;;;5092406;28;20421;-61
2023/11/22 12:02:35;;;;;;;5.03;4.63;;;16.20;72.40;;;;;;5093106;28;20414;-61
2023/11/22 12:05:08;;;;;;;4.60;4.30;;;16.10;59.00;;;;;;5093133;28;20398;-61
2023/11/22 12:07:35;;;;;;;4.50;4.20;;;15.70;62.70;;;;;;5093215;28;20405;-61
2023/11/22 12:10:01;;;;;;;4.60;4.30;;;15.60;66.20;;;;;;5092939;28;20893;-61
2023/11/22 12:12:28;;;;;;;5.40;4.90;;;15.70;64.80;;;;;;5092459;28;20401;-62
2023/11/22 12:14:56;;;;;;;5.77;5.30;;;15.70;67.20;;;;;;5089963;28;20431;-61
2023/11/22 12:17:22;;;;;;;6.00;5.50;;;15.80;67.40;;;;;;5073086;28;20475;-61
2023/11/22 12:19:48;;;;;;;5.57;5.20;;;15.90;67.90;;;;;;5093085;28;20799;-61
2023/11/22 12:22:16;;;;;;;5.63;5.27;;;16.10;68.40;;;;;;5092321;28;20418;-61
2023/11/22 12:24:45;;;;;;;6.90;6.20;;;16.10;61.70;;;;;;5089666;28;20831;-68
2023/11/22 12:27:11;;;;;;;5.60;5.30;;;16.10;66.50;;;;;;5090745;28;20424;-76
2023/11/22 12:29:37;;;;;;;5.80;5.30;;;16.00;61.60;;;;;;5092781;28;20240;-68
2023/11/22 12:32:03;;;;;;;5.77;5.37;;;15.70;56.90;;;;;;5074724;28;20206;-68
2023/11/22 12:34:30;;;;;;;5.50;5.10;;;15.40;55.40;;;;;;5091424;28;20406;-68
2023/11/22 12:36:56;;;;;;;6.00;5.60;;;15.00;55.70;;;;;;5092406;28;20451;-69
2023/11/22 12:39:22;;;;;;;5.63;5.20;;;14.60;56.10;;;;;;5074232;28;20408;-68
2023/11/22 12:41:52;;;;;;;4.70;4.40;;;14.30;57.60;;;;;;5092571;28;20184;-69
2023/11/22 12:44:19;;;;;;;4.77;4.40;;;13.90;58.20;;;;;;5089849;28;20426;-68
2023/11/22 12:46:56;;;;;;;6.07;5.57;;;13.60;56.40;;;;;;5092535;28;20414;-69
2023/11/22 12:49:28;;;;;;;5.23;4.83;;;13.40;56.80;;;;;;5091957;28;20455;-69